sensor_id;sensor_type;location;lat;lon;timestamp;temperature;humidity
8676;DHT22;4375;52.486;13.424;2023-08-08T00:02:06;14.80;99.90
8676;DHT22;4375;52.486;13.424;2023-08-08T00:04:32;14.80;99.90
8676;DHT22;4375;52.486;13.424;2023-08-08T00:06:58;14.80;99.90
8676;DHT22;4375;52.486;13.424;2023-08-08T00:09:23;14.80;99.90
8676;DHT22;4375;52.486;13.424;2023-08-08T00:11:49;14.80;99.90
8676;DHT22;4375;52.486;13.424;2023-08-08T00:14:15;14.70;99.90
8676;DHT22;4375;52.486;13.424;2023-08-08T00:16:41;14.70;99.90
8676;DHT22;4375;52.486;13.424;2023-08-08T00:19:06;14.60;99.90
8676;DHT22;4375;52.486;13.424;2023-08-08T00:21:32;14.60;99.90
8676;DHT22;4375;52.486;13.424;2023-08-08T00:23:57;14.50;99.90
8676;DHT22;4375;52.486;13.424;2023-08-08T00:26:23;14.50;99.90
8676;DHT22;4375;52.486;13.424;2023-08-08T00:28:49;14.50;99.90
8676;DHT22;4375;52.486;13.424;2023-08-08T00:31:14;14.40;99.90
8676;DHT22;4375;52.486;13.424;2023-08-08T00:33:43;14.40;99.90
8676;DHT22;4375;52.486;13.424;2023-08-08T00:36:08;14.40;99.90
8676;DHT22;4375;52.486;13.424;2023-08-08T00:38:34;14.50;99.90
8676;DHT22;4375;52.486;13.424;2023-08-08T00:40:59;14.50;99.90
8676;DHT22;4375;52.486;13.424;2023-08-08T00:43:25;14.40;99.90
8676;DHT22;4375;52.486;13.424;2023-08-08T00:45:51;14.40;99.90
8676;DHT22;4375;52.486;13.424;2023-08-08T00:48:16;14.40;99.90
8676;DHT22;4375;52.486;13.424;2023-08-08T00:50:43;14.30;99.90
8676;DHT22;4375;52.486;13.424;2023-08-08T00:53:10;14.30;99.90
8676;DHT22;4375;52.486;13.424;2023-08-08T00:55:35;14.30;99.90
8676;DHT22;4375;52.486;13.424;2023-08-08T00:58:01;14.30;99.90
8676;DHT22;4375;52.486;13.424;2023-08-08T01:00:27;14.30;99.90
8676;DHT22;4375;52.486;13.424;2023-08-08T01:02:52;14.30;99.90
8676;DHT22;4375;52.486;13.424;2023-08-08T01:05:18;14.30;99.90
8676;DHT22;4375;52.486;13.424;2023-08-08T01:10:28;14.20;99.90
8676;DHT22;4375;52.486;13.424;2023-08-08T01:12:59;14.20;99.90
8676;DHT22;4375;52.486;13.424;2023-08-08T01:15:26;14.10;99.90
8676;DHT22;4375;52.486;13.424;2023-08-08T01:17:52;14.10;99.90
8676;DHT22;4375;52.486;13.424;2023-08-08T01:20:19;14.10;99.90
8676;DHT22;4375;52.486;13.424;2023-08-08T01:22:58;14.10;99.90
8676;DHT22;4375;52.486;13.424;2023-08-08T01:25:29;14.10;99.90
8676;DHT22;4375;52.486;13.424;2023-08-08T01:27:55;14.00;99.90
8676;DHT22;4375;52.486;13.424;2023-08-08T01:30:20;14.00;99.90
8676;DHT22;4375;52.486;13.424;2023-08-08T01:32:46;13.90;99.90
8676;DHT22;4375;52.486;13.424;2023-08-08T01:35:12;14.00;99.90
8676;DHT22;4375;52.486;13.424;2023-08-08T01:37:44;14.00;99.90
8676;DHT22;4375;52.486;13.424;2023-08-08T01:40:15;14.00;99.90
8676;DHT22;4375;52.486;13.424;2023-08-08T01:42:46;14.00;99.90
8676;DHT22;4375;52.486;13.424;2023-08-08T01:45:12;14.00;99.90
8676;DHT22;4375;52.486;13.424;2023-08-08T01:47:38;13.90;99.90
8676;DHT22;4375;52.486;13.424;2023-08-08T01:50:04;13.80;99.90
8676;DHT22;4375;52.486;13.424;2023-08-08T01:52:31;13.80;99.90
8676;DHT22;4375;52.486;13.424;2023-08-08T01:54:56;13.80;99.90
8676;DHT22;4375;52.486;13.424;2023-08-08T01:57:22;13.90;99.90
8676;DHT22;4375;52.486;13.424;2023-08-08T01:59:48;13.80;99.90
8676;DHT22;4375;52.486;13.424;2023-08-08T02:02:13;13.80;99.90
8676;DHT22;4375;52.486;13.424;2023-08-08T02:04:40;13.80;99.90
8676;DHT22;4375;52.486;13.424;2023-08-08T02:07:06;13.80;99.90
8676;DHT22;4375;52.486;13.424;2023-08-08T02:09:31;13.80;99.90
8676;DHT22;4375;52.486;13.424;2023-08-08T02:11:57;13.80;99.90
8676;DHT22;4375;52.486;13.424;2023-08-08T02:14:22;13.90;99.90
8676;DHT22;4375;52.486;13.424;2023-08-08T02:16:48;13.90;99.90
8676;DHT22;4375;52.486;13.424;2023-08-08T02:19:14;14.00;99.90
8676;DHT22;4375;52.486;13.424;2023-08-08T02:21:40;13.90;99.90
8676;DHT22;4375;52.486;13.424;2023-08-08T02:24:06;13.90;99.90
8676;DHT22;4375;52.486;13.424;2023-08-08T02:26:31;13.90;99.90
8676;DHT22;4375;52.486;13.424;2023-08-08T02:28:57;13.90;99.90
8676;DHT22;4375;52.486;13.424;2023-08-08T02:31:22;13.90;99.90
8676;DHT22;4375;52.486;13.424;2023-08-08T02:33:49;13.90;99.90
8676;DHT22;4375;52.486;13.424;2023-08-08T02:36:18;13.90;99.90
8676;DHT22;4375;52.486;13.424;2023-08-08T02:38:44;13.90;99.90
8676;DHT22;4375;52.486;13.424;2023-08-08T02:41:10;13.80;99.90
8676;DHT22;4375;52.486;13.424;2023-08-08T02:43:36;13.90;99.90
8676;DHT22;4375;52.486;13.424;2023-08-08T02:46:02;13.80;99.90
8676;DHT22;4375;52.486;13.424;2023-08-08T02:48:30;13.90;99.90
8676;DHT22;4375;52.486;13.424;2023-08-08T02:50:56;13.80;99.90
8676;DHT22;4375;52.486;13.424;2023-08-08T02:53:22;13.80;99.90
8676;DHT22;4375;52.486;13.424;2023-08-08T02:55:47;13.70;99.90
8676;DHT22;4375;52.486;13.424;2023-08-08T02:58:13;13.70;99.90
8676;DHT22;4375;52.486;13.424;2023-08-08T03:00:39;13.70;99.90
8676;DHT22;4375;52.486;13.424;2023-08-08T03:03:04;13.70;99.90
8676;DHT22;4375;52.486;13.424;2023-08-08T03:05:30;13.70;99.90
8676;DHT22;4375;52.486;13.424;2023-08-08T03:07:55;13.70;99.90
8676;DHT22;4375;52.486;13.424;2023-08-08T03:10:21;13.70;99.90
8676;DHT22;4375;52.486;13.424;2023-08-08T03:12:47;13.60;99.90
8676;DHT22;4375;52.486;13.424;2023-08-08T03:15:14;13.60;99.90
8676;DHT22;4375;52.486;13.424;2023-08-08T03:17:39;13.70;99.90
8676;DHT22;4375;52.486;13.424;2023-08-08T03:20:06;13.70;99.90
8676;DHT22;4375;52.486;13.424;2023-08-08T03:22:32;13.70;99.90
8676;DHT22;4375;52.486;13.424;2023-08-08T03:24:58;13.50;99.90
8676;DHT22;4375;52.486;13.424;2023-08-08T03:27:24;13.60;99.90
8676;DHT22;4375;52.486;13.424;2023-08-08T03:29:50;13.60;99.90
8676;DHT22;4375;52.486;13.424;2023-08-08T03:32:16;13.60;99.90
8676;DHT22;4375;52.486;13.424;2023-08-08T03:34:42;13.60;99.90
8676;DHT22;4375;52.486;13.424;2023-08-08T03:37:07;13.60;99.90
8676;DHT22;4375;52.486;13.424;2023-08-08T03:39:33;13.50;99.90
8676;DHT22;4375;52.486;13.424;2023-08-08T03:41:59;13.50;99.90
8676;DHT22;4375;52.486;13.424;2023-08-08T03:44:24;13.60;99.90
8676;DHT22;4375;52.486;13.424;2023-08-08T03:46:50;13.60;99.90
8676;DHT22;4375;52.486;13.424;2023-08-08T03:49:16;13.60;99.90
8676;DHT22;4375;52.486;13.424;2023-08-08T03:51:42;13.60;99.90
8676;DHT22;4375;52.486;13.424;2023-08-08T03:54:07;13.60;99.90
8676;DHT22;4375;52.486;13.424;2023-08-08T03:56:33;13.60;99.90
8676;DHT22;4375;52.486;13.424;2023-08-08T03:58:59;13.60;99.90
8676;DHT22;4375;52.486;13.424;2023-08-08T04:01:24;13.60;99.90
8676;DHT22;4375;52.486;13.424;2023-08-08T04:03:50;13.70;99.90
8676;DHT22;4375;52.486;13.424;2023-08-08T04:06:16;13.80;99.90
8676;DHT22;4375;52.486;13.424;2023-08-08T04:08:41;13.80;99.90
8676;DHT22;4375;52.486;13.424;2023-08-08T04:11:07;13.90;99.90
8676;DHT22;4375;52.486;13.424;2023-08-08T04:13:32;13.90;99.90
8676;DHT22;4375;52.486;13.424;2023-08-08T04:15:58;13.90;99.90
8676;DHT22;4375;52.486;13.424;2023-08-08T04:18:23;14.00;99.90
8676;DHT22;4375;52.486;13.424;2023-08-08T04:20:49;13.90;99.90
8676;DHT22;4375;52.486;13.424;2023-08-08T04:23:15;14.00;99.90
8676;DHT22;4375;52.486;13.424;2023-08-08T04:25:40;14.10;99.90
8676;DHT22;4375;52.486;13.424;2023-08-08T04:28:06;13.90;99.90
8676;DHT22;4375;52.486;13.424;2023-08-08T04:30:32;14.00;99.90
8676;DHT22;4375;52.486;13.424;2023-08-08T04:32:57;14.10;99.90
8676;DHT22;4375;52.486;13.424;2023-08-08T04:35:23;14.20;99.90
8676;DHT22;4375;52.486;13.424;2023-08-08T04:37:48;14.30;99.90
8676;DHT22;4375;52.486;13.424;2023-08-08T04:40:14;14.20;99.90
8676;DHT22;4375;52.486;13.424;2023-08-08T04:42:40;14.20;99.90
8676;DHT22;4375;52.486;13.424;2023-08-08T04:45:06;14.10;99.90
8676;DHT22;4375;52.486;13.424;2023-08-08T04:47:32;14.10;99.90
8676;DHT22;4375;52.486;13.424;2023-08-08T04:49:58;14.10;99.90
8676;DHT22;4375;52.486;13.424;2023-08-08T04:52:24;14.10;99.90
8676;DHT22;4375;52.486;13.424;2023-08-08T04:54:49;14.10;99.90
8676;DHT22;4375;52.486;13.424;2023-08-08T04:57:15;14.10;99.90
8676;DHT22;4375;52.486;13.424;2023-08-08T04:59:40;14.10;99.90
8676;DHT22;4375;52.486;13.424;2023-08-08T05:02:08;14.20;99.90
8676;DHT22;4375;52.486;13.424;2023-08-08T05:04:33;14.10;99.90
8676;DHT22;4375;52.486;13.424;2023-08-08T05:06:59;14.20;99.90
8676;DHT22;4375;52.486;13.424;2023-08-08T05:09:24;14.20;99.90
8676;DHT22;4375;52.486;13.424;2023-08-08T05:11:53;14.20;99.90
8676;DHT22;4375;52.486;13.424;2023-08-08T05:14:19;14.20;99.90
8676;DHT22;4375;52.486;13.424;2023-08-08T05:16:45;14.30;99.90
8676;DHT22;4375;52.486;13.424;2023-08-08T05:19:10;14.40;99.90
8676;DHT22;4375;52.486;13.424;2023-08-08T05:21:36;14.50;99.90
8676;DHT22;4375;52.486;13.424;2023-08-08T05:24:02;14.40;99.90
8676;DHT22;4375;52.486;13.424;2023-08-08T05:26:28;14.40;99.90
8676;DHT22;4375;52.486;13.424;2023-08-08T05:28:53;14.40;99.90
8676;DHT22;4375;52.486;13.424;2023-08-08T05:31:19;14.30;99.90
8676;DHT22;4375;52.486;13.424;2023-08-08T05:33:44;14.40;99.90
8676;DHT22;4375;52.486;13.424;2023-08-08T05:36:10;14.40;99.90
8676;DHT22;4375;52.486;13.424;2023-08-08T05:38:36;14.40;99.90
8676;DHT22;4375;52.486;13.424;2023-08-08T05:41:02;14.50;99.90
8676;DHT22;4375;52.486;13.424;2023-08-08T05:43:27;14.70;99.90
8676;DHT22;4375;52.486;13.424;2023-08-08T05:45:54;14.80;99.90
8676;DHT22;4375;52.486;13.424;2023-08-08T05:48:19;14.90;99.90
8676;DHT22;4375;52.486;13.424;2023-08-08T05:50:45;15.20;99.90
8676;DHT22;4375;52.486;13.424;2023-08-08T05:53:10;15.50;99.90
8676;DHT22;4375;52.486;13.424;2023-08-08T05:55:36;15.60;99.90
8676;DHT22;4375;52.486;13.424;2023-08-08T05:58:02;15.70;99.90
8676;DHT22;4375;52.486;13.424;2023-08-08T06:00:27;15.60;99.90
8676;DHT22;4375;52.486;13.424;2023-08-08T06:02:53;15.60;99.90
8676;DHT22;4375;52.486;13.424;2023-08-08T06:05:21;15.50;99.90
8676;DHT22;4375;52.486;13.424;2023-08-08T06:07:48;15.50;99.90
8676;DHT22;4375;52.486;13.424;2023-08-08T06:10:14;15.60;99.90
8676;DHT22;4375;52.486;13.424;2023-08-08T06:12:39;15.70;99.90
8676;DHT22;4375;52.486;13.424;2023-08-08T06:15:05;15.80;99.90
8676;DHT22;4375;52.486;13.424;2023-08-08T06:17:31;15.80;99.90
8676;DHT22;4375;52.486;13.424;2023-08-08T06:19:57;15.80;99.90
8676;DHT22;4375;52.486;13.424;2023-08-08T06:22:23;15.70;99.90
8676;DHT22;4375;52.486;13.424;2023-08-08T06:24:49;15.70;99.90
8676;DHT22;4375;52.486;13.424;2023-08-08T06:27:15;15.70;99.90
8676;DHT22;4375;52.486;13.424;2023-08-08T06:29:41;15.90;99.90
8676;DHT22;4375;52.486;13.424;2023-08-08T06:32:07;16.00;99.90
8676;DHT22;4375;52.486;13.424;2023-08-08T06:34:36;16.10;99.90
8676;DHT22;4375;52.486;13.424;2023-08-08T06:37:04;16.20;99.90
8676;DHT22;4375;52.486;13.424;2023-08-08T06:39:30;16.40;99.90
8676;DHT22;4375;52.486;13.424;2023-08-08T06:41:56;16.40;99.90
8676;DHT22;4375;52.486;13.424;2023-08-08T06:44:22;16.30;99.90
8676;DHT22;4375;52.486;13.424;2023-08-08T06:46:48;16.30;99.90
8676;DHT22;4375;52.486;13.424;2023-08-08T06:49:14;16.30;99.90
8676;DHT22;4375;52.486;13.424;2023-08-08T06:51:39;16.40;99.90
8676;DHT22;4375;52.486;13.424;2023-08-08T06:54:05;16.40;99.90
8676;DHT22;4375;52.486;13.424;2023-08-08T06:56:31;16.40;99.90
8676;DHT22;4375;52.486;13.424;2023-08-08T06:58:57;16.30;99.90
8676;DHT22;4375;52.486;13.424;2023-08-08T07:01:22;16.20;99.90
8676;DHT22;4375;52.486;13.424;2023-08-08T07:03:48;16.20;99.90
8676;DHT22;4375;52.486;13.424;2023-08-08T07:06:17;16.40;99.90
8676;DHT22;4375;52.486;13.424;2023-08-08T07:08:42;16.30;99.90
8676;DHT22;4375;52.486;13.424;2023-08-08T07:11:08;16.50;99.90
8676;DHT22;4375;52.486;13.424;2023-08-08T07:13:34;16.50;99.90
8676;DHT22;4375;52.486;13.424;2023-08-08T07:16:00;16.50;99.90
8676;DHT22;4375;52.486;13.424;2023-08-08T07:18:29;16.70;99.90
8676;DHT22;4375;52.486;13.424;2023-08-08T07:20:54;16.90;99.90
8676;DHT22;4375;52.486;13.424;2023-08-08T07:23:22;17.10;99.90
8676;DHT22;4375;52.486;13.424;2023-08-08T07:25:47;17.30;99.90
8676;DHT22;4375;52.486;13.424;2023-08-08T07:28:13;17.60;99.90
8676;DHT22;4375;52.486;13.424;2023-08-08T07:30:40;17.80;99.90
8676;DHT22;4375;52.486;13.424;2023-08-08T07:33:06;17.70;99.90
8676;DHT22;4375;52.486;13.424;2023-08-08T07:35:34;17.90;99.90
8676;DHT22;4375;52.486;13.424;2023-08-08T07:38:00;18.00;99.90
8676;DHT22;4375;52.486;13.424;2023-08-08T07:40:25;17.60;99.90
8676;DHT22;4375;52.486;13.424;2023-08-08T07:42:51;17.60;99.90
8676;DHT22;4375;52.486;13.424;2023-08-08T07:45:17;17.70;99.90
8676;DHT22;4375;52.486;13.424;2023-08-08T07:47:43;17.90;99.90
8676;DHT22;4375;52.486;13.424;2023-08-08T07:50:09;18.00;99.90
8676;DHT22;4375;52.486;13.424;2023-08-08T07:52:36;18.20;99.90
8676;DHT22;4375;52.486;13.424;2023-08-08T07:55:02;18.00;99.90
8676;DHT22;4375;52.486;13.424;2023-08-08T07:57:28;18.00;99.90
8676;DHT22;4375;52.486;13.424;2023-08-08T07:59:56;18.00;99.90
8676;DHT22;4375;52.486;13.424;2023-08-08T08:02:21;17.90;99.90
8676;DHT22;4375;52.486;13.424;2023-08-08T08:04:47;17.80;99.90
8676;DHT22;4375;52.486;13.424;2023-08-08T08:07:13;17.70;99.90
8676;DHT22;4375;52.486;13.424;2023-08-08T08:09:38;17.70;99.90
8676;DHT22;4375;52.486;13.424;2023-08-08T08:12:07;17.70;99.90
8676;DHT22;4375;52.486;13.424;2023-08-08T08:14:33;18.30;99.90
8676;DHT22;4375;52.486;13.424;2023-08-08T08:16:58;19.20;99.90
8676;DHT22;4375;52.486;13.424;2023-08-08T08:19:24;19.10;99.90
8676;DHT22;4375;52.486;13.424;2023-08-08T08:21:50;19.30;99.90
8676;DHT22;4375;52.486;13.424;2023-08-08T08:24:15;19.60;99.90
8676;DHT22;4375;52.486;13.424;2023-08-08T08:26:41;20.00;99.90
8676;DHT22;4375;52.486;13.424;2023-08-08T08:29:06;20.50;99.90
8676;DHT22;4375;52.486;13.424;2023-08-08T08:31:32;20.80;99.90
8676;DHT22;4375;52.486;13.424;2023-08-08T08:33:58;21.40;99.90
8676;DHT22;4375;52.486;13.424;2023-08-08T08:36:23;21.80;99.90
8676;DHT22;4375;52.486;13.424;2023-08-08T08:38:51;21.80;99.90
8676;DHT22;4375;52.486;13.424;2023-08-08T08:41:18;22.20;99.90
8676;DHT22;4375;52.486;13.424;2023-08-08T08:43:45;21.90;99.90
8676;DHT22;4375;52.486;13.424;2023-08-08T08:46:12;21.40;99.90
8676;DHT22;4375;52.486;13.424;2023-08-08T08:48:40;20.90;99.90
8676;DHT22;4375;52.486;13.424;2023-08-08T08:51:06;20.30;99.90
8676;DHT22;4375;52.486;13.424;2023-08-08T08:53:32;19.80;99.90
8676;DHT22;4375;52.486;13.424;2023-08-08T08:56:00;20.40;99.90
8676;DHT22;4375;52.486;13.424;2023-08-08T08:58:27;21.10;99.90
8676;DHT22;4375;52.486;13.424;2023-08-08T09:00:54;21.50;99.90
8676;DHT22;4375;52.486;13.424;2023-08-08T09:03:20;22.10;99.90
8676;DHT22;4375;52.486;13.424;2023-08-08T09:05:46;21.90;99.90
8676;DHT22;4375;52.486;13.424;2023-08-08T09:08:13;21.60;99.90
8676;DHT22;4375;52.486;13.424;2023-08-08T09:10:40;21.10;99.90
8676;DHT22;4375;52.486;13.424;2023-08-08T09:13:06;21.70;99.90
8676;DHT22;4375;52.486;13.424;2023-08-08T09:15:33;21.40;99.90
8676;DHT22;4375;52.486;13.424;2023-08-08T09:18:00;21.50;99.90
8676;DHT22;4375;52.486;13.424;2023-08-08T09:20:26;21.70;99.90
8676;DHT22;4375;52.486;13.424;2023-08-08T09:22:56;21.80;99.90
8676;DHT22;4375;52.486;13.424;2023-08-08T09:25:26;22.60;99.90
8676;DHT22;4375;52.486;13.424;2023-08-08T09:27:52;22.90;99.90
8676;DHT22;4375;52.486;13.424;2023-08-08T09:30:19;23.20;99.90
8676;DHT22;4375;52.486;13.424;2023-08-08T09:32:45;23.80;99.90
8676;DHT22;4375;52.486;13.424;2023-08-08T09:35:10;24.00;99.90
8676;DHT22;4375;52.486;13.424;2023-08-08T09:37:37;23.70;99.90
8676;DHT22;4375;52.486;13.424;2023-08-08T09:40:05;23.40;99.90
8676;DHT22;4375;52.486;13.424;2023-08-08T09:42:33;23.20;99.90
8676;DHT22;4375;52.486;13.424;2023-08-08T09:45:00;22.80;99.90
8676;DHT22;4375;52.486;13.424;2023-08-08T09:47:26;22.40;99.90
8676;DHT22;4375;52.486;13.424;2023-08-08T09:50:01;22.00;99.90
8676;DHT22;4375;52.486;13.424;2023-08-08T09:52:27;21.30;99.90
8676;DHT22;4375;52.486;13.424;2023-08-08T09:54:54;21.00;99.90
8676;DHT22;4375;52.486;13.424;2023-08-08T09:57:21;20.90;99.90
8676;DHT22;4375;52.486;13.424;2023-08-08T09:59:47;20.90;99.90
8676;DHT22;4375;52.486;13.424;2023-08-08T10:02:14;20.50;99.90
8676;DHT22;4375;52.486;13.424;2023-08-08T10:04:41;20.30;99.90
8676;DHT22;4375;52.486;13.424;2023-08-08T10:07:08;19.80;99.90
8676;DHT22;4375;52.486;13.424;2023-08-08T10:09:34;19.40;99.90
8676;DHT22;4375;52.486;13.424;2023-08-08T10:12:00;18.90;99.90
8676;DHT22;4375;52.486;13.424;2023-08-08T10:14:31;19.00;99.90
8676;DHT22;4375;52.486;13.424;2023-08-08T10:16:57;18.90;99.90
8676;DHT22;4375;52.486;13.424;2023-08-08T10:19:23;19.00;99.90
8676;DHT22;4375;52.486;13.424;2023-08-08T10:21:58;19.20;99.90
8676;DHT22;4375;52.486;13.424;2023-08-08T10:24:24;19.40;99.90
8676;DHT22;4375;52.486;13.424;2023-08-08T10:26:56;19.60;99.90
8676;DHT22;4375;52.486;13.424;2023-08-08T10:29:24;19.70;99.90
8676;DHT22;4375;52.486;13.424;2023-08-08T10:31:58;19.60;99.90
8676;DHT22;4375;52.486;13.424;2023-08-08T10:34:36;19.90;99.90
8676;DHT22;4375;52.486;13.424;2023-08-08T10:37:10;20.20;99.90
8676;DHT22;4375;52.486;13.424;2023-08-08T10:39:37;20.40;99.90
8676;DHT22;4375;52.486;13.424;2023-08-08T10:42:05;20.40;99.90
8676;DHT22;4375;52.486;13.424;2023-08-08T10:44:31;20.50;99.90
8676;DHT22;4375;52.486;13.424;2023-08-08T10:46:57;20.80;99.90
8676;DHT22;4375;52.486;13.424;2023-08-08T10:49:26;20.60;99.90
8676;DHT22;4375;52.486;13.424;2023-08-08T10:51:52;20.30;99.90
8676;DHT22;4375;52.486;13.424;2023-08-08T10:54:24;20.30;99.90
8676;DHT22;4375;52.486;13.424;2023-08-08T10:56:55;20.30;99.90
8676;DHT22;4375;52.486;13.424;2023-08-08T10:59:23;20.00;99.90
8676;DHT22;4375;52.486;13.424;2023-08-08T11:01:50;19.60;99.90
8676;DHT22;4375;52.486;13.424;2023-08-08T11:04:21;19.60;99.90
8676;DHT22;4375;52.486;13.424;2023-08-08T11:06:47;19.60;99.90
8676;DHT22;4375;52.486;13.424;2023-08-08T11:09:14;19.50;99.90
8676;DHT22;4375;52.486;13.424;2023-08-08T11:11:42;19.70;99.90
8676;DHT22;4375;52.486;13.424;2023-08-08T11:14:16;20.10;99.90
8676;DHT22;4375;52.486;13.424;2023-08-08T11:16:43;20.10;99.90
8676;DHT22;4375;52.486;13.424;2023-08-08T11:19:09;20.10;99.90
8676;DHT22;4375;52.486;13.424;2023-08-08T11:21:39;20.20;99.90
8676;DHT22;4375;52.486;13.424;2023-08-08T11:24:06;20.20;99.90
8676;DHT22;4375;52.486;13.424;2023-08-08T11:26:35;20.10;99.90
8676;DHT22;4375;52.486;13.424;2023-08-08T11:29:03;20.00;99.90
8676;DHT22;4375;52.486;13.424;2023-08-08T11:31:29;19.90;99.90
8676;DHT22;4375;52.486;13.424;2023-08-08T11:33:56;19.80;99.90
8676;DHT22;4375;52.486;13.424;2023-08-08T11:36:22;19.50;99.90
8676;DHT22;4375;52.486;13.424;2023-08-08T11:38:49;19.10;99.90
8676;DHT22;4375;52.486;13.424;2023-08-08T11:41:16;18.60;99.90
8676;DHT22;4375;52.486;13.424;2023-08-08T11:43:43;18.40;99.90
8676;DHT22;4375;52.486;13.424;2023-08-08T11:46:12;18.60;99.90
8676;DHT22;4375;52.486;13.424;2023-08-08T11:48:38;18.40;99.90
8676;DHT22;4375;52.486;13.424;2023-08-08T11:51:05;18.10;99.90
8676;DHT22;4375;52.486;13.424;2023-08-08T11:53:32;18.30;99.90
8676;DHT22;4375;52.486;13.424;2023-08-08T11:55:59;18.50;99.90
8676;DHT22;4375;52.486;13.424;2023-08-08T11:58:26;18.70;99.90
8676;DHT22;4375;52.486;13.424;2023-08-08T12:00:52;18.90;99.90
8676;DHT22;4375;52.486;13.424;2023-08-08T12:03:20;19.00;99.90
8676;DHT22;4375;52.486;13.424;2023-08-08T12:05:48;18.90;99.90
8676;DHT22;4375;52.486;13.424;2023-08-08T12:08:18;19.00;99.90
8676;DHT22;4375;52.486;13.424;2023-08-08T12:10:49;19.00;99.90
8676;DHT22;4375;52.486;13.424;2023-08-08T12:13:22;18.90;99.90
8676;DHT22;4375;52.486;13.424;2023-08-08T12:15:49;18.90;99.90
8676;DHT22;4375;52.486;13.424;2023-08-08T12:18:18;19.00;99.90
8676;DHT22;4375;52.486;13.424;2023-08-08T12:20:45;19.00;99.90
8676;DHT22;4375;52.486;13.424;2023-08-08T12:23:20;18.90;99.90
8676;DHT22;4375;52.486;13.424;2023-08-08T12:25:46;18.90;99.90
8676;DHT22;4375;52.486;13.424;2023-08-08T12:28:12;19.00;99.90
8676;DHT22;4375;52.486;13.424;2023-08-08T12:30:37;19.00;99.90
8676;DHT22;4375;52.486;13.424;2023-08-08T12:33:03;19.10;99.90
8676;DHT22;4375;52.486;13.424;2023-08-08T12:35:29;19.10;99.90
8676;DHT22;4375;52.486;13.424;2023-08-08T12:37:54;19.20;99.90
8676;DHT22;4375;52.486;13.424;2023-08-08T12:40:20;19.20;99.90
8676;DHT22;4375;52.486;13.424;2023-08-08T12:42:46;19.10;99.90
8676;DHT22;4375;52.486;13.424;2023-08-08T12:45:14;18.60;99.90
8676;DHT22;4375;52.486;13.424;2023-08-08T12:47:52;18.60;99.90
8676;DHT22;4375;52.486;13.424;2023-08-08T12:50:17;18.40;99.90
8676;DHT22;4375;52.486;13.424;2023-08-08T12:52:43;18.50;99.90
8676;DHT22;4375;52.486;13.424;2023-08-08T12:55:09;18.40;99.90
8676;DHT22;4375;52.486;13.424;2023-08-08T12:57:37;18.60;99.90
8676;DHT22;4375;52.486;13.424;2023-08-08T13:00:03;18.80;99.90
8676;DHT22;4375;52.486;13.424;2023-08-08T13:02:29;18.80;99.90
8676;DHT22;4375;52.486;13.424;2023-08-08T13:04:56;18.80;99.90
8676;DHT22;4375;52.486;13.424;2023-08-08T13:07:22;18.90;99.90
8676;DHT22;4375;52.486;13.424;2023-08-08T13:10:00;18.80;99.90
8676;DHT22;4375;52.486;13.424;2023-08-08T13:12:26;18.90;99.90
8676;DHT22;4375;52.486;13.424;2023-08-08T13:14:51;19.20;99.90
8676;DHT22;4375;52.486;13.424;2023-08-08T13:17:17;19.40;99.90
8676;DHT22;4375;52.486;13.424;2023-08-08T13:19:43;19.30;99.90
8676;DHT22;4375;52.486;13.424;2023-08-08T13:22:08;19.20;99.90
8676;DHT22;4375;52.486;13.424;2023-08-08T13:24:34;19.30;99.90
8676;DHT22;4375;52.486;13.424;2023-08-08T13:26:59;19.50;99.90
8676;DHT22;4375;52.486;13.424;2023-08-08T13:29:25;19.40;99.90
8676;DHT22;4375;52.486;13.424;2023-08-08T13:31:50;19.40;99.90
8676;DHT22;4375;52.486;13.424;2023-08-08T13:34:16;19.40;99.90
8676;DHT22;4375;52.486;13.424;2023-08-08T13:36:42;19.30;99.90
8676;DHT22;4375;52.486;13.424;2023-08-08T13:39:07;19.40;99.90
8676;DHT22;4375;52.486;13.424;2023-08-08T13:41:35;19.40;99.90
8676;DHT22;4375;52.486;13.424;2023-08-08T13:44:00;19.30;99.90
8676;DHT22;4375;52.486;13.424;2023-08-08T13:46:26;19.20;99.90
8676;DHT22;4375;52.486;13.424;2023-08-08T13:48:51;18.60;99.90
8676;DHT22;4375;52.486;13.424;2023-08-08T13:51:17;18.10;99.90
8676;DHT22;4375;52.486;13.424;2023-08-08T13:53:43;17.60;99.90
8676;DHT22;4375;52.486;13.424;2023-08-08T13:56:10;17.30;99.90
8676;DHT22;4375;52.486;13.424;2023-08-08T13:58:36;17.30;99.90
8676;DHT22;4375;52.486;13.424;2023-08-08T14:01:02;17.20;99.90
8676;DHT22;4375;52.486;13.424;2023-08-08T14:03:28;17.30;99.90
8676;DHT22;4375;52.486;13.424;2023-08-08T14:05:53;17.50;99.90
8676;DHT22;4375;52.486;13.424;2023-08-08T14:08:19;17.40;99.90
8676;DHT22;4375;52.486;13.424;2023-08-08T14:10:46;17.50;99.90
8676;DHT22;4375;52.486;13.424;2023-08-08T14:13:11;17.70;99.90
8676;DHT22;4375;52.486;13.424;2023-08-08T14:15:37;17.90;99.90
8676;DHT22;4375;52.486;13.424;2023-08-08T14:18:03;17.90;99.90
8676;DHT22;4375;52.486;13.424;2023-08-08T14:20:29;17.90;99.90
8676;DHT22;4375;52.486;13.424;2023-08-08T14:22:55;17.80;99.90
8676;DHT22;4375;52.486;13.424;2023-08-08T14:25:21;17.60;99.90
8676;DHT22;4375;52.486;13.424;2023-08-08T14:27:47;17.60;99.90
8676;DHT22;4375;52.486;13.424;2023-08-08T14:30:13;17.60;99.90
8676;DHT22;4375;52.486;13.424;2023-08-08T14:32:38;17.70;99.90
8676;DHT22;4375;52.486;13.424;2023-08-08T14:35:04;17.70;99.90
8676;DHT22;4375;52.486;13.424;2023-08-08T14:37:31;17.90;99.90
8676;DHT22;4375;52.486;13.424;2023-08-08T14:39:57;17.90;99.90
8676;DHT22;4375;52.486;13.424;2023-08-08T14:42:23;18.00;99.90
8676;DHT22;4375;52.486;13.424;2023-08-08T14:44:48;18.10;99.90
8676;DHT22;4375;52.486;13.424;2023-08-08T14:47:14;18.20;99.90
8676;DHT22;4375;52.486;13.424;2023-08-08T14:49:40;18.30;99.90
8676;DHT22;4375;52.486;13.424;2023-08-08T14:52:06;18.40;99.90
8676;DHT22;4375;52.486;13.424;2023-08-08T14:54:34;18.50;99.90
8676;DHT22;4375;52.486;13.424;2023-08-08T14:57:00;18.70;99.90
8676;DHT22;4375;52.486;13.424;2023-08-08T14:59:27;18.70;99.90
8676;DHT22;4375;52.486;13.424;2023-08-08T15:01:53;18.80;99.90
8676;DHT22;4375;52.486;13.424;2023-08-08T15:04:18;18.90;99.90
8676;DHT22;4375;52.486;13.424;2023-08-08T15:06:44;18.80;99.90
8676;DHT22;4375;52.486;13.424;2023-08-08T15:09:10;18.80;99.90
8676;DHT22;4375;52.486;13.424;2023-08-08T15:11:37;18.80;99.90
8676;DHT22;4375;52.486;13.424;2023-08-08T15:14:03;18.80;99.90
8676;DHT22;4375;52.486;13.424;2023-08-08T15:16:28;19.00;99.90
8676;DHT22;4375;52.486;13.424;2023-08-08T15:18:54;19.20;99.90
8676;DHT22;4375;52.486;13.424;2023-08-08T15:21:21;19.40;99.90
8676;DHT22;4375;52.486;13.424;2023-08-08T15:23:47;19.50;99.90
8676;DHT22;4375;52.486;13.424;2023-08-08T15:26:13;19.60;99.90
8676;DHT22;4375;52.486;13.424;2023-08-08T15:28:39;19.60;99.90
8676;DHT22;4375;52.486;13.424;2023-08-08T15:31:05;19.60;99.90
8676;DHT22;4375;52.486;13.424;2023-08-08T15:33:31;19.50;99.90
8676;DHT22;4375;52.486;13.424;2023-08-08T15:35:57;19.40;99.90
8676;DHT22;4375;52.486;13.424;2023-08-08T15:38:22;19.10;99.90
8676;DHT22;4375;52.486;13.424;2023-08-08T15:40:48;18.80;99.90
8676;DHT22;4375;52.486;13.424;2023-08-08T15:43:14;18.50;99.90